createdAt,value
2019-02-20T00:01:03.672Z,8.20
2019-02-20T00:03:53.546Z,8.10
2019-02-20T00:06:42.544Z,8.20
2019-02-20T00:09:31.164Z,8.10
2019-02-20T00:12:20.028Z,8.00
2019-02-20T00:15:09.400Z,8.00
2019-02-20T00:17:58.143Z,8.00
2019-02-20T00:20:47.178Z,8.00
2019-02-20T00:23:35.552Z,8.00
2019-02-20T00:26:25.311Z,8.00
2019-02-20T00:29:14.605Z,8.00
2019-02-20T00:32:04.022Z,8.00
2019-02-20T00:34:52.824Z,7.90
2019-02-20T00:37:41.926Z,7.90
2019-02-20T00:40:30.956Z,7.80
2019-02-20T00:43:20.133Z,7.80
2019-02-20T00:46:27.879Z,7.70
2019-02-20T00:49:21.556Z,7.70
2019-02-20T00:52:32.957Z,7.70
2019-02-20T00:55:33.088Z,7.70
2019-02-20T00:58:21.792Z,7.70
2019-02-20T01:01:11.195Z,7.70
2019-02-20T01:04:00.817Z,7.70
2019-02-20T01:06:49.998Z,7.70
2019-02-20T01:09:39.483Z,7.70
2019-02-20T01:12:29.280Z,7.70
2019-02-20T01:15:18.410Z,7.70
2019-02-20T01:18:07.880Z,7.70
2019-02-20T01:20:57.341Z,7.70
2019-02-20T01:23:46.757Z,7.60
2019-02-20T01:26:36.085Z,7.60
2019-02-20T01:29:25.645Z,7.60
2019-02-20T01:32:14.542Z,7.50
2019-02-20T01:35:03.775Z,7.60
2019-02-20T01:37:52.524Z,7.50
2019-02-20T01:40:42.354Z,7.50
2019-02-20T01:43:33.892Z,7.40
2019-02-20T01:46:22.943Z,7.40
2019-02-20T01:49:12.227Z,7.40
2019-02-20T01:52:01.575Z,7.30
2019-02-20T01:54:50.236Z,7.30
2019-02-20T01:57:40.143Z,7.30
2019-02-20T02:00:29.150Z,7.20
2019-02-20T02:03:18.481Z,7.20
2019-02-20T02:06:08.279Z,7.20
2019-02-20T02:08:59.629Z,7.20
2019-02-20T02:11:48.262Z,7.20
2019-02-20T02:14:37.493Z,7.20
2019-02-20T02:17:26.813Z,7.20
2019-02-20T02:20:16.717Z,7.10
2019-02-20T02:23:05.498Z,7.10
2019-02-20T02:25:55.136Z,7.10
2019-02-20T02:28:44.674Z,7.10
2019-02-20T02:31:34.154Z,7.10
2019-02-20T02:34:23.922Z,7.10
2019-02-20T02:37:13.618Z,7.10
2019-02-20T02:40:02.609Z,7.10
2019-02-20T02:42:51.819Z,7.20
2019-02-20T02:45:40.668Z,7.20
2019-02-20T02:48:29.947Z,7.20
2019-02-20T02:51:18.888Z,7.20
2019-02-20T02:54:07.933Z,7.20
2019-02-20T02:56:56.650Z,7.10
2019-02-20T02:59:45.570Z,7.10
2019-02-20T03:02:34.198Z,6.90
2019-02-20T03:05:23.160Z,6.90
2019-02-20T03:08:12.662Z,6.90
2019-02-20T03:11:02.115Z,6.90
2019-02-20T03:13:51.071Z,6.90
2019-02-20T03:16:39.995Z,6.80
2019-02-20T03:19:29.522Z,6.80
2019-02-20T03:22:18.966Z,6.70
2019-02-20T03:25:08.345Z,6.80
2019-02-20T03:27:57.978Z,6.80
2019-02-20T03:30:47.260Z,6.80
2019-02-20T03:33:36.569Z,6.90
2019-02-20T03:36:25.921Z,6.90
2019-02-20T03:39:15.411Z,6.90
2019-02-20T03:42:04.795Z,6.90
2019-02-20T03:44:54.632Z,7.00
2019-02-20T03:47:44.243Z,7.00
2019-02-20T03:50:33.246Z,7.00
2019-02-20T03:53:21.893Z,7.00
2019-02-20T03:56:11.688Z,7.00
2019-02-20T03:59:00.649Z,7.00
2019-02-20T04:01:49.523Z,7.00
2019-02-20T04:04:38.610Z,7.00
2019-02-20T04:07:27.865Z,7.10
2019-02-20T04:10:17.083Z,7.10
2019-02-20T04:13:06.695Z,7.10
2019-02-20T04:15:55.606Z,7.10
2019-02-20T04:18:44.495Z,7.10
2019-02-20T04:21:33.320Z,7.10
2019-02-20T04:24:22.063Z,7.10
2019-02-20T04:27:11.279Z,7.10
2019-02-20T04:30:00.612Z,7.00
2019-02-20T04:32:49.904Z,7.10
2019-02-20T04:35:38.821Z,7.00
2019-02-20T04:38:27.663Z,7.00
2019-02-20T04:41:16.946Z,7.10
2019-02-20T04:44:06.700Z,7.20
2019-02-20T04:46:55.991Z,7.20
2019-02-20T04:49:45.285Z,7.20
2019-02-20T04:52:33.654Z,7.20
2019-02-20T04:55:23.271Z,7.10
2019-02-20T04:58:19.565Z,7.10
2019-02-20T05:01:08.843Z,7.20
2019-02-20T05:03:57.836Z,7.10
2019-02-20T05:06:46.335Z,7.10
2019-02-20T05:09:36.098Z,7.10
2019-02-20T05:12:24.671Z,7.10
2019-02-20T05:15:14.056Z,7.10
2019-02-20T05:18:02.673Z,7.10
2019-02-20T05:20:51.618Z,7.10
2019-02-20T05:23:42.757Z,7.10
2019-02-20T05:26:31.499Z,7.10
2019-02-20T05:29:20.413Z,7.00
2019-02-20T05:32:09.810Z,7.00
2019-02-20T05:34:59.301Z,6.90
2019-02-20T05:37:48.584Z,6.90
2019-02-20T05:40:37.848Z,6.90
2019-02-20T05:43:27.561Z,6.80
2019-02-20T05:46:16.379Z,6.70
2019-02-20T05:49:05.658Z,6.70
2019-02-20T05:51:54.897Z,6.70
2019-02-20T05:54:44.740Z,6.60
2019-02-20T05:57:36.392Z,6.60
2019-02-20T06:00:25.243Z,6.60
2019-02-20T06:03:14.678Z,6.60
2019-02-20T06:06:03.797Z,6.50
2019-02-20T06:08:52.766Z,6.50
2019-02-20T06:11:41.981Z,6.50
2019-02-20T06:14:31.032Z,6.60
2019-02-20T06:17:20.168Z,6.70
2019-02-20T06:20:09.971Z,6.70
2019-02-20T06:22:59.145Z,6.80
2019-02-20T06:25:48.550Z,6.90
2019-02-20T06:28:37.582Z,7.00
2019-02-20T06:31:26.603Z,7.00
2019-02-20T06:34:16.194Z,7.00
2019-02-20T06:37:06.195Z,7.10
2019-02-20T06:39:55.780Z,7.10
2019-02-20T06:42:45.560Z,7.10
2019-02-20T06:45:34.112Z,7.20
2019-02-20T06:48:22.892Z,7.20
2019-02-20T06:51:12.511Z,7.30
2019-02-20T06:54:01.532Z,7.30
2019-02-20T06:56:50.294Z,7.30
2019-02-20T06:59:39.434Z,7.30
2019-02-20T07:02:28.683Z,7.30
2019-02-20T07:05:35.268Z,7.40
2019-02-20T07:09:00.762Z,7.30
2019-02-20T07:12:32.441Z,7.40
2019-02-20T07:16:21.230Z,7.40
2019-02-20T07:19:24.172Z,7.50
2019-02-20T07:22:46.907Z,7.50
2019-02-20T07:26:05.478Z,7.40
2019-02-20T07:29:33.477Z,7.30
2019-02-20T07:32:22.129Z,7.30
2019-02-20T07:35:12.183Z,7.20
2019-02-20T07:38:01.276Z,7.20
2019-02-20T07:40:50.161Z,7.20
2019-02-20T07:43:38.894Z,7.20
2019-02-20T07:46:27.782Z,7.20
2019-02-20T07:49:16.735Z,7.20
2019-02-20T07:52:05.644Z,7.20
2019-02-20T07:54:54.604Z,7.20
2019-02-20T07:57:43.495Z,7.20
2019-02-20T08:00:32.948Z,7.30
2019-02-20T08:03:22.202Z,7.30
2019-02-20T08:06:11.583Z,7.40
2019-02-20T08:09:00.754Z,7.50
2019-02-20T08:11:50.247Z,7.60
2019-02-20T08:14:39.213Z,7.70
2019-02-20T08:17:28.399Z,7.80
2019-02-20T08:20:18.013Z,7.90
2019-02-20T08:23:07.369Z,8.00
2019-02-20T08:25:56.618Z,8.10
2019-02-20T08:28:45.372Z,8.10
2019-02-20T08:31:34.515Z,8.10
2019-02-20T08:34:23.751Z,8.10
2019-02-20T08:37:12.577Z,8.20
2019-02-20T08:40:01.717Z,8.30
2019-02-20T08:42:51.043Z,8.30
2019-02-20T08:45:40.401Z,8.40
2019-02-20T08:48:29.523Z,8.40
2019-02-20T08:51:19.045Z,8.50
2019-02-20T08:54:08.086Z,8.50
2019-02-20T08:56:56.867Z,8.60
2019-02-20T08:59:45.769Z,8.70
2019-02-20T09:02:35.241Z,8.80
2019-02-20T09:05:24.406Z,8.90
2019-02-20T09:08:13.820Z,9.00
2019-02-20T09:11:02.755Z,9.10
2019-02-20T09:13:51.775Z,9.20
2019-02-20T09:16:40.981Z,9.20
2019-02-20T09:19:30.243Z,9.20
2019-02-20T09:22:19.437Z,9.30
2019-02-20T09:25:09.566Z,9.20
2019-02-20T09:27:58.757Z,9.30
2019-02-20T09:30:48.722Z,9.30
2019-02-20T09:33:38.092Z,9.30
2019-02-20T09:36:27.132Z,9.30
2019-02-20T09:39:33.199Z,9.30
2019-02-20T09:42:22.950Z,9.40
2019-02-20T09:45:11.840Z,9.40
2019-02-20T09:48:01.413Z,9.50
2019-02-20T09:50:50.821Z,9.50
2019-02-20T09:53:40.279Z,9.50
2019-02-20T09:56:29.338Z,9.50
2019-02-20T09:59:19.496Z,9.50
2019-02-20T10:02:09.150Z,9.60
2019-02-20T10:04:58.044Z,9.70
2019-02-20T10:07:46.992Z,9.70
2019-02-20T10:10:36.913Z,9.70
2019-02-20T10:13:27.004Z,9.70
2019-02-20T10:16:16.450Z,9.80
2019-02-20T10:19:06.079Z,9.80
2019-02-20T10:21:55.398Z,9.90
2019-02-20T10:24:44.421Z,10.10
2019-02-20T10:27:33.877Z,10.30
2019-02-20T10:30:22.953Z,10.50
2019-02-20T10:33:12.477Z,10.60
2019-02-20T10:36:01.447Z,10.80
2019-02-20T10:38:50.956Z,10.80
2019-02-20T10:41:39.685Z,10.90
2019-02-20T10:44:29.353Z,10.90
2019-02-20T10:47:18.791Z,10.90
2019-02-20T10:50:08.359Z,10.90
2019-02-20T10:52:57.216Z,10.90
2019-02-20T10:55:46.911Z,10.90
2019-02-20T10:58:36.696Z,11.00
2019-02-20T11:01:26.021Z,11.00
2019-02-20T11:04:15.607Z,11.00
2019-02-20T11:07:04.526Z,11.10
2019-02-20T11:09:53.431Z,11.10
2019-02-20T11:12:42.894Z,11.10
2019-02-20T11:15:32.201Z,11.20
2019-02-20T11:18:21.598Z,11.20
2019-02-20T11:21:10.540Z,11.40
2019-02-20T11:24:01.179Z,11.50
2019-02-20T11:26:54.800Z,11.60
2019-02-20T11:29:40.919Z,11.70
2019-02-20T11:32:30.202Z,11.80
2019-02-20T11:35:19.319Z,11.90
2019-02-20T11:38:08.360Z,12.00
2019-02-20T11:40:57.352Z,12.10
2019-02-20T11:43:47.275Z,12.10
2019-02-20T11:46:36.542Z,12.10
2019-02-20T11:49:25.940Z,12.10
2019-02-20T11:52:15.236Z,12.00
2019-02-20T11:55:05.513Z,12.00
2019-02-20T11:58:00.755Z,12.10
2019-02-20T12:00:46.238Z,12.20
2019-02-20T12:03:35.754Z,12.30
2019-02-20T12:06:25.212Z,12.40
2019-02-20T12:09:14.236Z,12.50
2019-02-20T12:12:03.224Z,12.60
2019-02-20T12:14:52.532Z,12.60
2019-02-20T12:17:41.977Z,12.60
2019-02-20T12:20:31.297Z,12.50
2019-02-20T12:23:22.860Z,12.50
2019-02-20T12:26:12.067Z,12.40
2019-02-20T12:29:01.804Z,12.30
2019-02-20T12:31:52.722Z,12.30
2019-02-20T12:34:41.490Z,12.30
2019-02-20T12:37:30.239Z,12.20
2019-02-20T12:40:20.214Z,12.30
2019-02-20T12:43:09.315Z,12.30
2019-02-20T12:45:58.936Z,12.40
2019-02-20T12:48:48.286Z,12.40
2019-02-20T12:51:37.306Z,12.40
2019-02-20T12:54:27.387Z,12.40
2019-02-20T12:57:16.096Z,12.40
2019-02-20T13:00:05.322Z,12.40
2019-02-20T13:02:54.108Z,12.40
2019-02-20T13:05:43.795Z,12.50
2019-02-20T13:08:33.327Z,12.60
2019-02-20T13:11:22.956Z,12.70
2019-02-20T13:14:13.264Z,12.70
2019-02-20T13:17:02.205Z,12.60
2019-02-20T13:19:51.011Z,12.60
2019-02-20T13:22:41.276Z,12.70
2019-02-20T13:25:30.908Z,12.70
2019-02-20T13:28:21.129Z,12.70
2019-02-20T13:31:10.851Z,12.70
2019-02-20T13:34:00.570Z,12.80
2019-02-20T13:36:49.348Z,12.90
2019-02-20T13:39:38.509Z,12.90
2019-02-20T13:42:27.456Z,12.90
2019-02-20T13:45:17.170Z,12.90
2019-02-20T13:48:06.229Z,13.00
2019-02-20T13:50:55.295Z,13.00
2019-02-20T13:53:46.575Z,13.10
2019-02-20T13:56:35.178Z,13.10
2019-02-20T13:59:24.356Z,13.10
2019-02-20T14:02:13.562Z,13.00
2019-02-20T14:05:02.732Z,12.90
2019-02-20T14:07:52.366Z,12.80
2019-02-20T14:10:41.865Z,12.70
2019-02-20T14:13:30.964Z,12.60
2019-02-20T14:16:19.939Z,12.60
2019-02-20T14:19:09.560Z,12.50
2019-02-20T14:21:58.929Z,12.50
2019-02-20T14:24:49.257Z,12.40
2019-02-20T14:27:39.248Z,12.30
2019-02-20T14:30:29.072Z,12.30
2019-02-20T14:33:18.721Z,12.40
2019-02-20T14:36:07.617Z,12.40
2019-02-20T14:38:56.396Z,12.40
2019-02-20T14:41:45.800Z,12.30
2019-02-20T14:44:35.367Z,12.30
2019-02-20T14:47:24.130Z,12.20
2019-02-20T14:50:13.378Z,12.30
2019-02-20T14:53:02.779Z,12.30
2019-02-20T14:55:52.453Z,12.40
2019-02-20T14:58:41.524Z,12.40
2019-02-20T15:01:31.209Z,12.50
2019-02-20T15:04:20.685Z,12.50
2019-02-20T15:07:10.759Z,12.60
2019-02-20T15:09:59.644Z,12.60
2019-02-20T15:12:48.722Z,12.70
2019-02-20T15:15:38.165Z,12.70
2019-02-20T15:18:27.644Z,12.60
2019-02-20T15:21:17.524Z,12.60
2019-02-20T15:24:07.145Z,12.60
2019-02-20T15:26:56.742Z,12.60
2019-02-20T15:29:46.220Z,12.50
2019-02-20T15:32:35.494Z,12.60
2019-02-20T15:35:24.417Z,12.60
2019-02-20T15:38:13.987Z,12.50
2019-02-20T15:41:03.777Z,12.50
2019-02-20T15:43:52.935Z,12.50
2019-02-20T15:46:42.614Z,12.50
2019-02-20T15:49:31.834Z,12.40
2019-02-20T15:52:21.104Z,12.40
2019-02-20T15:55:11.512Z,12.40
2019-02-20T15:58:00.690Z,12.40
2019-02-20T16:00:50.678Z,12.30
2019-02-20T16:03:40.155Z,12.30
2019-02-20T16:06:29.366Z,12.30
2019-02-20T16:09:18.632Z,12.30
2019-02-20T16:12:07.982Z,12.30
2019-02-20T16:14:56.977Z,12.30
2019-02-20T16:17:46.159Z,12.30
2019-02-20T16:20:35.963Z,12.30
2019-02-20T16:23:25.515Z,12.20
2019-02-20T16:26:14.836Z,12.20
2019-02-20T16:29:04.619Z,12.10
2019-02-20T16:31:54.426Z,12.10
2019-02-20T16:34:43.655Z,12.00
2019-02-20T16:37:33.424Z,11.90
2019-02-20T16:40:22.624Z,11.90
2019-02-20T16:43:11.637Z,11.80
2019-02-20T16:46:00.831Z,11.80
2019-02-20T16:48:50.382Z,11.80
2019-02-20T16:51:39.123Z,11.70
2019-02-20T16:54:27.991Z,11.60
2019-02-20T16:57:17.374Z,11.60
2019-02-20T17:00:06.763Z,11.60
2019-02-20T17:02:56.158Z,11.60
2019-02-20T17:05:45.584Z,11.60
2019-02-20T17:08:35.599Z,11.50
2019-02-20T17:11:26.481Z,11.50
2019-02-20T17:14:16.087Z,11.40
2019-02-20T17:17:06.350Z,11.30
2019-02-20T17:19:56.175Z,11.20
2019-02-20T17:22:45.606Z,11.20
2019-02-20T17:25:34.625Z,11.10
2019-02-20T17:28:23.614Z,11.10
2019-02-20T17:31:13.440Z,11.10
2019-02-20T17:34:03.174Z,11.00
2019-02-20T17:36:53.196Z,10.90
2019-02-20T17:39:42.553Z,10.90
2019-02-20T17:42:32.033Z,10.80
2019-02-20T17:45:22.140Z,10.80
2019-02-20T17:48:11.815Z,10.80
2019-02-20T17:51:00.810Z,10.80
2019-02-20T17:53:51.282Z,10.90
2019-02-20T17:56:40.730Z,10.90
2019-02-20T17:59:29.726Z,10.90
2019-02-20T18:02:18.824Z,10.90
2019-02-20T18:05:08.097Z,10.90
2019-02-20T18:07:57.175Z,10.90
2019-02-20T18:10:46.737Z,10.90
2019-02-20T18:13:35.782Z,10.90
2019-02-20T18:16:31.190Z,10.90
2019-02-20T18:19:20.610Z,11.00
2019-02-20T18:22:09.970Z,11.00
2019-02-20T18:25:00.417Z,11.00
2019-02-20T18:27:49.610Z,11.00
2019-02-20T18:30:38.954Z,10.90
2019-02-20T18:33:28.136Z,10.90
2019-02-20T18:36:18.168Z,10.90
2019-02-20T18:39:08.574Z,10.80
2019-02-20T18:41:57.699Z,10.80
2019-02-20T18:44:47.377Z,10.80
2019-02-20T18:47:36.811Z,10.80
2019-02-20T18:50:27.821Z,10.80
2019-02-20T18:53:17.635Z,10.80
2019-02-20T18:56:07.858Z,10.90
2019-02-20T18:58:57.565Z,10.80
2019-02-20T19:01:46.864Z,10.80
2019-02-20T19:04:36.784Z,10.90
2019-02-20T19:07:26.265Z,10.90
2019-02-20T19:10:26.270Z,10.90
2019-02-20T19:13:49.620Z,10.90
2019-02-20T19:17:14.846Z,10.90
2019-02-20T19:20:42.498Z,10.80
2019-02-20T19:23:58.216Z,10.80
2019-02-20T19:27:14.010Z,10.80
2019-02-20T19:30:51.857Z,10.70
2019-02-20T19:34:11.215Z,10.60
2019-02-20T19:37:29.987Z,10.50
2019-02-20T19:40:59.765Z,10.40
2019-02-20T19:44:20.506Z,10.30
2019-02-20T19:47:18.764Z,10.20
2019-02-20T19:50:42.560Z,10.10
2019-02-20T19:53:48.516Z,10.10
2019-02-20T19:57:13.225Z,10.00
2019-02-20T20:00:59.164Z,10.00
2019-02-20T20:04:20.289Z,9.90
2019-02-20T20:07:34.856Z,9.90
2019-02-20T20:11:07.091Z,9.80
2019-02-20T20:14:46.667Z,9.80
2019-02-20T20:18:12.239Z,9.70
2019-02-20T20:21:29.092Z,9.70
2019-02-20T20:24:47.034Z,9.60
2019-02-20T20:28:32.980Z,9.60
2019-02-20T20:31:47.316Z,9.60
2019-02-20T20:35:07.004Z,9.50
2019-02-20T20:38:58.754Z,9.50
2019-02-20T20:42:06.979Z,9.50
2019-02-20T20:45:02.929Z,9.50
2019-02-20T20:48:11.826Z,9.40
2019-02-20T20:51:23.796Z,9.40
2019-02-20T20:55:08.158Z,9.40
2019-02-20T20:58:35.377Z,9.40
2019-02-20T21:01:59.715Z,9.40
2019-02-20T21:05:48.411Z,9.40
2019-02-20T21:08:50.419Z,9.40
2019-02-20T21:12:26.444Z,9.30
2019-02-20T21:16:11.746Z,9.30
2019-02-20T21:19:26.756Z,9.30
2019-02-20T21:22:51.666Z,9.20
2019-02-20T21:26:04.721Z,9.20
2019-02-20T21:29:28.383Z,9.20
2019-02-20T21:32:34.410Z,9.20
2019-02-20T21:36:05.125Z,9.10
2019-02-20T21:39:24.645Z,9.10
2019-02-20T21:42:39.547Z,9.10
2019-02-20T21:45:58.692Z,9.10
2019-02-20T21:49:20.411Z,9.00
2019-02-20T21:52:35.576Z,9.00
2019-02-20T21:55:46.170Z,9.00
2019-02-20T21:58:57.938Z,9.00
2019-02-20T22:02:40.065Z,9.00
2019-02-20T22:06:11.955Z,8.90
2019-02-20T22:09:44.854Z,8.90
2019-02-20T22:13:10.926Z,8.90
2019-02-20T22:17:05.058Z,8.80
2019-02-20T22:20:09.881Z,8.70
2019-02-20T22:23:23.020Z,8.70
2019-02-20T22:26:46.961Z,8.70
2019-02-20T22:30:04.814Z,8.70
2019-02-20T22:33:09.144Z,8.70
2019-02-20T22:36:27.415Z,8.70
2019-02-20T22:39:30.248Z,8.70
2019-02-20T22:43:01.558Z,8.70
2019-02-20T22:46:20.747Z,8.60
2019-02-20T22:49:52.835Z,8.60
2019-02-20T22:53:32.196Z,8.60
2019-02-20T22:57:10.985Z,8.60
2019-02-20T23:00:44.557Z,8.60
2019-02-20T23:04:09.902Z,8.60
2019-02-20T23:07:46.189Z,8.60
2019-02-20T23:11:15.902Z,8.50
2019-02-20T23:14:53.164Z,8.50
2019-02-20T23:17:42.568Z,8.50
2019-02-20T23:20:31.502Z,8.40
2019-02-20T23:23:20.347Z,8.50
2019-02-20T23:26:09.529Z,8.40
2019-02-20T23:28:58.916Z,8.40
2019-02-20T23:31:48.236Z,8.40
2019-02-20T23:34:37.437Z,8.40
2019-02-20T23:37:26.281Z,8.40
2019-02-20T23:40:15.881Z,8.30
2019-02-20T23:43:05.356Z,8.30
2019-02-20T23:45:54.669Z,8.30
2019-02-20T23:48:43.760Z,8.30
2019-02-20T23:51:32.920Z,8.20
2019-02-20T23:54:23.461Z,8.20
2019-02-20T23:57:12.414Z,8.20
